sensor_id;sensor_type;location;lat;lon;timestamp;P1;durP1;ratioP1;P2;durP2;ratioP2
19434;SDS011;9853;50.848;4.108;2023-09-12T00:00:40;7.70;;;4.35;;
19434;SDS011;9853;50.848;4.108;2023-09-12T00:02:41;13.57;;;5.05;;
19434;SDS011;9853;50.848;4.108;2023-09-12T00:04:42;9.82;;;5.10;;
19434;SDS011;9853;50.848;4.108;2023-09-12T00:06:42;13.70;;;5.70;;
19434;SDS011;9853;50.848;4.108;2023-09-12T00:08:43;12.35;;;6.95;;
19434;SDS011;9853;50.848;4.108;2023-09-12T00:10:44;10.90;;;5.57;;
19434;SDS011;9853;50.848;4.108;2023-09-12T00:12:45;14.02;;;6.50;;
19434;SDS011;9853;50.848;4.108;2023-09-12T00:14:45;14.68;;;6.97;;
19434;SDS011;9853;50.848;4.108;2023-09-12T00:16:46;12.18;;;6.07;;
19434;SDS011;9853;50.848;4.108;2023-09-12T00:18:47;13.82;;;6.30;;
19434;SDS011;9853;50.848;4.108;2023-09-12T00:20:48;10.68;;;6.43;;
19434;SDS011;9853;50.848;4.108;2023-09-12T00:22:49;13.60;;;5.68;;
19434;SDS011;9853;50.848;4.108;2023-09-12T00:24:50;11.80;;;6.22;;
19434;SDS011;9853;50.848;4.108;2023-09-12T00:26:50;13.18;;;6.03;;
19434;SDS011;9853;50.848;4.108;2023-09-12T00:28:52;16.67;;;6.70;;
19434;SDS011;9853;50.848;4.108;2023-09-12T00:30:52;11.23;;;5.72;;
19434;SDS011;9853;50.848;4.108;2023-09-12T00:32:53;13.93;;;6.32;;
19434;SDS011;9853;50.848;4.108;2023-09-12T00:34:54;12.35;;;5.53;;
19434;SDS011;9853;50.848;4.108;2023-09-12T00:36:54;9.57;;;5.72;;
19434;SDS011;9853;50.848;4.108;2023-09-12T00:38:56;13.43;;;6.38;;
19434;SDS011;9853;50.848;4.108;2023-09-12T00:40:57;14.25;;;6.93;;
19434;SDS011;9853;50.848;4.108;2023-09-12T00:42:58;11.18;;;5.63;;
19434;SDS011;9853;50.848;4.108;2023-09-12T00:44:59;11.25;;;5.45;;
19434;SDS011;9853;50.848;4.108;2023-09-12T00:47:00;12.57;;;5.20;;
19434;SDS011;9853;50.848;4.108;2023-09-12T00:49:02;11.00;;;5.28;;
19434;SDS011;9853;50.848;4.108;2023-09-12T00:51:05;14.35;;;6.15;;
19434;SDS011;9853;50.848;4.108;2023-09-12T00:53:07;12.00;;;5.60;;
19434;SDS011;9853;50.848;4.108;2023-09-12T00:55:08;12.98;;;5.53;;
19434;SDS011;9853;50.848;4.108;2023-09-12T00:57:09;13.20;;;6.68;;
19434;SDS011;9853;50.848;4.108;2023-09-12T00:59:10;11.10;;;6.15;;
19434;SDS011;9853;50.848;4.108;2023-09-12T01:01:11;11.23;;;5.85;;
19434;SDS011;9853;50.848;4.108;2023-09-12T01:03:12;9.45;;;5.47;;
19434;SDS011;9853;50.848;4.108;2023-09-12T01:05:13;14.02;;;6.30;;
19434;SDS011;9853;50.848;4.108;2023-09-12T01:07:15;13.27;;;6.03;;
19434;SDS011;9853;50.848;4.108;2023-09-12T01:09:16;12.18;;;5.80;;
19434;SDS011;9853;50.848;4.108;2023-09-12T01:11:17;9.80;;;5.63;;
19434;SDS011;9853;50.848;4.108;2023-09-12T01:13:20;16.15;;;7.00;;
19434;SDS011;9853;50.848;4.108;2023-09-12T01:15:21;12.65;;;6.05;;
19434;SDS011;9853;50.848;4.108;2023-09-12T01:17:22;8.88;;;4.90;;
19434;SDS011;9853;50.848;4.108;2023-09-12T01:19:24;12.98;;;6.40;;
19434;SDS011;9853;50.848;4.108;2023-09-12T01:23:49;10.15;;;5.88;;
19434;SDS011;9853;50.848;4.108;2023-09-12T01:28:29;11.63;;;5.90;;
19434;SDS011;9853;50.848;4.108;2023-09-12T01:30:31;13.05;;;6.47;;
19434;SDS011;9853;50.848;4.108;2023-09-12T01:32:33;13.05;;;5.43;;
19434;SDS011;9853;50.848;4.108;2023-09-12T01:34:35;12.68;;;6.32;;
19434;SDS011;9853;50.848;4.108;2023-09-12T01:36:37;16.15;;;6.60;;
19434;SDS011;9853;50.848;4.108;2023-09-12T01:38:38;13.15;;;5.40;;
19434;SDS011;9853;50.848;4.108;2023-09-12T01:40:42;10.38;;;5.53;;
19434;SDS011;9853;50.848;4.108;2023-09-12T01:42:46;11.30;;;5.63;;
19434;SDS011;9853;50.848;4.108;2023-09-12T01:44:55;8.65;;;4.72;;
19434;SDS011;9853;50.848;4.108;2023-09-12T01:46:57;11.63;;;5.65;;
19434;SDS011;9853;50.848;4.108;2023-09-12T01:49:03;9.13;;;4.82;;
19434;SDS011;9853;50.848;4.108;2023-09-12T01:51:05;13.48;;;6.35;;
19434;SDS011;9853;50.848;4.108;2023-09-12T01:53:07;9.43;;;4.95;;
19434;SDS011;9853;50.848;4.108;2023-09-12T01:55:08;12.70;;;5.65;;
19434;SDS011;9853;50.848;4.108;2023-09-12T01:57:11;11.60;;;5.53;;
19434;SDS011;9853;50.848;4.108;2023-09-12T01:59:12;12.80;;;5.15;;
19434;SDS011;9853;50.848;4.108;2023-09-12T02:01:14;12.93;;;6.07;;
19434;SDS011;9853;50.848;4.108;2023-09-12T02:03:14;11.85;;;5.15;;
19434;SDS011;9853;50.848;4.108;2023-09-12T02:05:16;12.48;;;5.50;;
19434;SDS011;9853;50.848;4.108;2023-09-12T02:07:18;13.15;;;5.90;;
19434;SDS011;9853;50.848;4.108;2023-09-12T02:09:20;11.15;;;4.70;;
19434;SDS011;9853;50.848;4.108;2023-09-12T02:11:21;9.82;;;5.28;;
19434;SDS011;9853;50.848;4.108;2023-09-12T02:13:22;11.50;;;5.68;;
19434;SDS011;9853;50.848;4.108;2023-09-12T02:15:23;15.13;;;5.93;;
19434;SDS011;9853;50.848;4.108;2023-09-12T02:17:23;15.90;;;6.60;;
19434;SDS011;9853;50.848;4.108;2023-09-12T02:19:24;9.85;;;4.95;;
19434;SDS011;9853;50.848;4.108;2023-09-12T02:21:25;12.82;;;5.65;;
19434;SDS011;9853;50.848;4.108;2023-09-12T02:23:26;10.85;;;5.82;;
19434;SDS011;9853;50.848;4.108;2023-09-12T02:25:26;12.98;;;5.65;;
19434;SDS011;9853;50.848;4.108;2023-09-12T02:27:27;10.48;;;4.90;;
19434;SDS011;9853;50.848;4.108;2023-09-12T02:29:28;12.60;;;5.35;;
19434;SDS011;9853;50.848;4.108;2023-09-12T02:31:28;12.57;;;6.00;;
19434;SDS011;9853;50.848;4.108;2023-09-12T02:33:29;12.85;;;5.90;;
19434;SDS011;9853;50.848;4.108;2023-09-12T02:35:30;11.05;;;5.68;;
19434;SDS011;9853;50.848;4.108;2023-09-12T02:37:31;10.65;;;5.72;;
19434;SDS011;9853;50.848;4.108;2023-09-12T02:39:31;10.95;;;5.50;;
19434;SDS011;9853;50.848;4.108;2023-09-12T02:41:32;10.32;;;5.50;;
19434;SDS011;9853;50.848;4.108;2023-09-12T02:43:33;11.10;;;5.40;;
19434;SDS011;9853;50.848;4.108;2023-09-12T02:45:34;8.77;;;5.18;;
19434;SDS011;9853;50.848;4.108;2023-09-12T02:47:35;10.75;;;5.28;;
19434;SDS011;9853;50.848;4.108;2023-09-12T02:49:35;11.05;;;5.75;;
19434;SDS011;9853;50.848;4.108;2023-09-12T02:51:39;10.30;;;5.30;;
19434;SDS011;9853;50.848;4.108;2023-09-12T02:53:40;9.75;;;4.93;;
19434;SDS011;9853;50.848;4.108;2023-09-12T02:55:41;11.50;;;5.70;;
19434;SDS011;9853;50.848;4.108;2023-09-12T02:57:43;13.85;;;6.00;;
19434;SDS011;9853;50.848;4.108;2023-09-12T02:59:44;12.32;;;6.38;;
19434;SDS011;9853;50.848;4.108;2023-09-12T03:01:45;11.43;;;5.38;;
19434;SDS011;9853;50.848;4.108;2023-09-12T03:03:46;13.35;;;5.22;;
19434;SDS011;9853;50.848;4.108;2023-09-12T03:06:00;12.18;;;5.28;;
19434;SDS011;9853;50.848;4.108;2023-09-12T03:08:02;8.68;;;4.97;;
19434;SDS011;9853;50.848;4.108;2023-09-12T03:10:04;14.60;;;6.10;;
19434;SDS011;9853;50.848;4.108;2023-09-12T03:12:05;13.00;;;5.82;;
19434;SDS011;9853;50.848;4.108;2023-09-12T03:14:06;10.93;;;5.50;;
19434;SDS011;9853;50.848;4.108;2023-09-12T03:16:10;10.45;;;4.80;;
19434;SDS011;9853;50.848;4.108;2023-09-12T03:18:14;12.10;;;5.57;;
19434;SDS011;9853;50.848;4.108;2023-09-12T03:20:15;14.20;;;5.97;;
19434;SDS011;9853;50.848;4.108;2023-09-12T03:22:16;10.63;;;5.50;;
19434;SDS011;9853;50.848;4.108;2023-09-12T03:24:16;11.45;;;5.57;;
19434;SDS011;9853;50.848;4.108;2023-09-12T03:26:19;11.85;;;5.30;;
19434;SDS011;9853;50.848;4.108;2023-09-12T03:28:20;9.15;;;5.43;;
19434;SDS011;9853;50.848;4.108;2023-09-12T03:30:21;10.55;;;5.35;;
19434;SDS011;9853;50.848;4.108;2023-09-12T03:32:21;9.63;;;4.32;;
19434;SDS011;9853;50.848;4.108;2023-09-12T03:34:22;12.35;;;5.60;;
19434;SDS011;9853;50.848;4.108;2023-09-12T03:36:23;10.10;;;5.13;;
19434;SDS011;9853;50.848;4.108;2023-09-12T03:38:24;8.27;;;4.43;;
19434;SDS011;9853;50.848;4.108;2023-09-12T03:40:24;11.75;;;5.47;;
19434;SDS011;9853;50.848;4.108;2023-09-12T03:42:25;12.77;;;5.28;;
19434;SDS011;9853;50.848;4.108;2023-09-12T03:44:26;10.07;;;5.35;;
19434;SDS011;9853;50.848;4.108;2023-09-12T03:46:27;11.85;;;5.40;;
19434;SDS011;9853;50.848;4.108;2023-09-12T03:48:28;10.60;;;5.15;;
19434;SDS011;9853;50.848;4.108;2023-09-12T03:50:30;9.05;;;5.05;;
19434;SDS011;9853;50.848;4.108;2023-09-12T03:52:31;10.88;;;4.95;;
19434;SDS011;9853;50.848;4.108;2023-09-12T03:54:32;11.82;;;5.43;;
19434;SDS011;9853;50.848;4.108;2023-09-12T03:56:33;10.05;;;5.55;;
19434;SDS011;9853;50.848;4.108;2023-09-12T03:58:34;10.23;;;4.65;;
19434;SDS011;9853;50.848;4.108;2023-09-12T04:00:34;11.68;;;5.70;;
19434;SDS011;9853;50.848;4.108;2023-09-12T04:02:35;10.95;;;5.03;;
19434;SDS011;9853;50.848;4.108;2023-09-12T04:04:36;12.48;;;5.68;;
19434;SDS011;9853;50.848;4.108;2023-09-12T04:06:37;11.57;;;5.68;;
19434;SDS011;9853;50.848;4.108;2023-09-12T04:08:37;10.80;;;5.40;;
19434;SDS011;9853;50.848;4.108;2023-09-12T04:10:39;9.50;;;5.18;;
19434;SDS011;9853;50.848;4.108;2023-09-12T04:12:39;13.13;;;5.47;;
19434;SDS011;9853;50.848;4.108;2023-09-12T04:14:40;11.40;;;5.55;;
19434;SDS011;9853;50.848;4.108;2023-09-12T04:16:41;11.18;;;5.43;;
19434;SDS011;9853;50.848;4.108;2023-09-12T04:18:42;11.60;;;4.47;;
19434;SDS011;9853;50.848;4.108;2023-09-12T04:20:42;14.48;;;5.88;;
19434;SDS011;9853;50.848;4.108;2023-09-12T04:22:43;13.45;;;5.85;;
19434;SDS011;9853;50.848;4.108;2023-09-12T04:24:44;12.43;;;4.93;;
19434;SDS011;9853;50.848;4.108;2023-09-12T04:26:45;11.48;;;5.70;;
19434;SDS011;9853;50.848;4.108;2023-09-12T04:28:49;10.77;;;5.03;;
19434;SDS011;9853;50.848;4.108;2023-09-12T04:30:50;8.70;;;4.97;;
19434;SDS011;9853;50.848;4.108;2023-09-12T04:32:51;12.30;;;5.47;;
19434;SDS011;9853;50.848;4.108;2023-09-12T04:34:52;10.13;;;5.30;;
19434;SDS011;9853;50.848;4.108;2023-09-12T04:36:53;10.73;;;5.13;;
19434;SDS011;9853;50.848;4.108;2023-09-12T04:38:54;10.23;;;4.88;;
19434;SDS011;9853;50.848;4.108;2023-09-12T04:40:59;10.32;;;4.88;;
19434;SDS011;9853;50.848;4.108;2023-09-12T04:43:06;12.00;;;5.38;;
19434;SDS011;9853;50.848;4.108;2023-09-12T04:45:07;9.65;;;5.07;;
19434;SDS011;9853;50.848;4.108;2023-09-12T04:47:09;8.90;;;4.53;;
19434;SDS011;9853;50.848;4.108;2023-09-12T04:49:10;13.57;;;4.97;;
19434;SDS011;9853;50.848;4.108;2023-09-12T04:51:11;13.38;;;4.90;;
19434;SDS011;9853;50.848;4.108;2023-09-12T04:53:11;9.15;;;5.20;;
19434;SDS011;9853;50.848;4.108;2023-09-12T04:55:12;10.40;;;5.03;;
19434;SDS011;9853;50.848;4.108;2023-09-12T04:57:13;10.95;;;4.85;;
19434;SDS011;9853;50.848;4.108;2023-09-12T04:59:14;9.80;;;5.38;;
19434;SDS011;9853;50.848;4.108;2023-09-12T05:01:15;9.48;;;5.03;;
19434;SDS011;9853;50.848;4.108;2023-09-12T05:03:16;9.93;;;5.38;;
19434;SDS011;9853;50.848;4.108;2023-09-12T05:05:17;9.02;;;4.55;;
19434;SDS011;9853;50.848;4.108;2023-09-12T05:07:18;8.60;;;4.55;;
19434;SDS011;9853;50.848;4.108;2023-09-12T05:09:19;11.40;;;5.10;;
19434;SDS011;9853;50.848;4.108;2023-09-12T05:11:21;8.77;;;4.53;;
19434;SDS011;9853;50.848;4.108;2023-09-12T05:13:23;9.07;;;4.53;;
19434;SDS011;9853;50.848;4.108;2023-09-12T05:15:24;10.93;;;5.15;;
19434;SDS011;9853;50.848;4.108;2023-09-12T05:17:25;9.82;;;4.57;;
19434;SDS011;9853;50.848;4.108;2023-09-12T05:19:26;8.07;;;4.45;;
19434;SDS011;9853;50.848;4.108;2023-09-12T05:21:26;14.43;;;5.47;;
19434;SDS011;9853;50.848;4.108;2023-09-12T05:23:27;9.27;;;4.65;;
19434;SDS011;9853;50.848;4.108;2023-09-12T05:25:28;9.35;;;4.47;;
19434;SDS011;9853;50.848;4.108;2023-09-12T05:27:30;10.52;;;5.00;;
19434;SDS011;9853;50.848;4.108;2023-09-12T05:29:31;9.93;;;4.90;;
19434;SDS011;9853;50.848;4.108;2023-09-12T05:31:31;9.43;;;4.43;;
19434;SDS011;9853;50.848;4.108;2023-09-12T05:33:32;9.23;;;4.85;;
19434;SDS011;9853;50.848;4.108;2023-09-12T05:35:33;12.65;;;5.35;;
19434;SDS011;9853;50.848;4.108;2023-09-12T05:37:34;14.05;;;5.30;;
19434;SDS011;9853;50.848;4.108;2023-09-12T05:39:34;9.90;;;5.85;;
19434;SDS011;9853;50.848;4.108;2023-09-12T05:41:35;8.35;;;4.50;;
19434;SDS011;9853;50.848;4.108;2023-09-12T05:43:36;14.70;;;6.10;;
19434;SDS011;9853;50.848;4.108;2023-09-12T05:45:37;10.70;;;5.40;;
19434;SDS011;9853;50.848;4.108;2023-09-12T05:47:38;12.48;;;5.80;;
19434;SDS011;9853;50.848;4.108;2023-09-12T05:49:39;9.52;;;5.13;;
19434;SDS011;9853;50.848;4.108;2023-09-12T05:51:40;11.10;;;5.20;;
19434;SDS011;9853;50.848;4.108;2023-09-12T05:53:42;10.88;;;5.53;;
19434;SDS011;9853;50.848;4.108;2023-09-12T05:55:43;12.38;;;5.80;;
19434;SDS011;9853;50.848;4.108;2023-09-12T05:57:45;10.15;;;5.43;;
19434;SDS011;9853;50.848;4.108;2023-09-12T05:59:47;10.20;;;5.35;;
19434;SDS011;9853;50.848;4.108;2023-09-12T06:01:48;13.48;;;5.90;;
19434;SDS011;9853;50.848;4.108;2023-09-12T06:03:49;13.65;;;5.88;;
19434;SDS011;9853;50.848;4.108;2023-09-12T06:05:50;12.93;;;5.85;;
19434;SDS011;9853;50.848;4.108;2023-09-12T06:07:50;11.98;;;5.60;;
19434;SDS011;9853;50.848;4.108;2023-09-12T06:09:51;11.63;;;5.55;;
19434;SDS011;9853;50.848;4.108;2023-09-12T06:11:52;9.43;;;5.07;;
19434;SDS011;9853;50.848;4.108;2023-09-12T06:13:53;10.18;;;4.95;;
19434;SDS011;9853;50.848;4.108;2023-09-12T06:15:54;10.00;;;5.07;;
19434;SDS011;9853;50.848;4.108;2023-09-12T06:17:55;9.85;;;5.40;;
19434;SDS011;9853;50.848;4.108;2023-09-12T06:19:56;15.20;;;6.90;;
19434;SDS011;9853;50.848;4.108;2023-09-12T06:21:56;12.27;;;5.20;;
19434;SDS011;9853;50.848;4.108;2023-09-12T06:24:11;13.05;;;5.90;;
19434;SDS011;9853;50.848;4.108;2023-09-12T06:26:12;14.57;;;6.03;;
19434;SDS011;9853;50.848;4.108;2023-09-12T06:28:13;9.80;;;5.57;;
19434;SDS011;9853;50.848;4.108;2023-09-12T06:30:25;11.52;;;5.13;;
19434;SDS011;9853;50.848;4.108;2023-09-12T06:32:26;11.45;;;5.28;;
19434;SDS011;9853;50.848;4.108;2023-09-12T06:34:26;12.65;;;6.18;;
19434;SDS011;9853;50.848;4.108;2023-09-12T06:36:28;7.50;;;4.30;;
19434;SDS011;9853;50.848;4.108;2023-09-12T06:38:29;11.38;;;5.40;;
19434;SDS011;9853;50.848;4.108;2023-09-12T06:40:30;10.77;;;4.78;;
19434;SDS011;9853;50.848;4.108;2023-09-12T06:42:31;10.02;;;5.05;;
19434;SDS011;9853;50.848;4.108;2023-09-12T06:44:31;11.82;;;5.45;;
19434;SDS011;9853;50.848;4.108;2023-09-12T06:46:32;12.07;;;5.50;;
19434;SDS011;9853;50.848;4.108;2023-09-12T06:48:36;12.00;;;5.47;;
19434;SDS011;9853;50.848;4.108;2023-09-12T06:50:36;12.43;;;5.20;;
19434;SDS011;9853;50.848;4.108;2023-09-12T06:52:38;13.45;;;5.43;;
19434;SDS011;9853;50.848;4.108;2023-09-12T06:54:38;12.00;;;5.32;;
19434;SDS011;9853;50.848;4.108;2023-09-12T06:56:39;11.55;;;4.97;;
19434;SDS011;9853;50.848;4.108;2023-09-12T06:58:42;11.38;;;5.05;;
19434;SDS011;9853;50.848;4.108;2023-09-12T07:00:43;12.93;;;5.78;;
19434;SDS011;9853;50.848;4.108;2023-09-12T07:02:44;14.10;;;5.25;;
19434;SDS011;9853;50.848;4.108;2023-09-12T07:04:44;11.40;;;5.03;;
19434;SDS011;9853;50.848;4.108;2023-09-12T07:06:45;11.48;;;4.85;;
19434;SDS011;9853;50.848;4.108;2023-09-12T07:08:46;12.23;;;5.20;;
19434;SDS011;9853;50.848;4.108;2023-09-12T07:10:47;10.23;;;4.93;;
19434;SDS011;9853;50.848;4.108;2023-09-12T07:12:47;10.50;;;5.15;;
19434;SDS011;9853;50.848;4.108;2023-09-12T07:14:48;13.27;;;5.63;;
19434;SDS011;9853;50.848;4.108;2023-09-12T07:16:51;8.98;;;4.78;;
19434;SDS011;9853;50.848;4.108;2023-09-12T07:18:51;10.07;;;4.60;;
19434;SDS011;9853;50.848;4.108;2023-09-12T07:21:02;12.50;;;4.82;;
19434;SDS011;9853;50.848;4.108;2023-09-12T07:23:05;12.15;;;5.20;;
19434;SDS011;9853;50.848;4.108;2023-09-12T07:25:06;9.95;;;4.90;;
19434;SDS011;9853;50.848;4.108;2023-09-12T07:27:07;12.50;;;5.43;;
19434;SDS011;9853;50.848;4.108;2023-09-12T07:29:08;14.05;;;4.63;;
19434;SDS011;9853;50.848;4.108;2023-09-12T07:31:08;10.68;;;4.57;;
19434;SDS011;9853;50.848;4.108;2023-09-12T07:33:09;11.30;;;4.95;;
19434;SDS011;9853;50.848;4.108;2023-09-12T07:35:10;8.10;;;4.57;;
19434;SDS011;9853;50.848;4.108;2023-09-12T07:37:11;10.10;;;4.60;;
19434;SDS011;9853;50.848;4.108;2023-09-12T07:39:12;15.40;;;5.38;;
19434;SDS011;9853;50.848;4.108;2023-09-12T07:41:13;9.68;;;4.70;;
19434;SDS011;9853;50.848;4.108;2023-09-12T07:43:16;11.63;;;4.88;;
19434;SDS011;9853;50.848;4.108;2023-09-12T07:45:17;9.93;;;4.45;;
19434;SDS011;9853;50.848;4.108;2023-09-12T07:47:18;14.63;;;5.05;;
19434;SDS011;9853;50.848;4.108;2023-09-12T07:49:19;10.55;;;5.40;;
19434;SDS011;9853;50.848;4.108;2023-09-12T07:51:20;12.52;;;5.68;;
19434;SDS011;9853;50.848;4.108;2023-09-12T07:53:43;11.93;;;5.78;;
19434;SDS011;9853;50.848;4.108;2023-09-12T07:55:44;11.68;;;6.35;;
19434;SDS011;9853;50.848;4.108;2023-09-12T07:57:49;12.27;;;5.40;;
19434;SDS011;9853;50.848;4.108;2023-09-12T07:59:50;10.90;;;5.38;;
19434;SDS011;9853;50.848;4.108;2023-09-12T08:01:54;13.90;;;5.63;;
19434;SDS011;9853;50.848;4.108;2023-09-12T08:03:54;13.02;;;4.75;;
19434;SDS011;9853;50.848;4.108;2023-09-12T08:05:58;11.32;;;5.30;;
19434;SDS011;9853;50.848;4.108;2023-09-12T08:07:59;14.85;;;5.15;;
19434;SDS011;9853;50.848;4.108;2023-09-12T08:10:00;13.85;;;5.07;;
19434;SDS011;9853;50.848;4.108;2023-09-12T08:12:01;14.35;;;5.70;;
19434;SDS011;9853;50.848;4.108;2023-09-12T08:14:03;12.45;;;5.70;;
19434;SDS011;9853;50.848;4.108;2023-09-12T08:16:04;12.23;;;5.93;;
19434;SDS011;9853;50.848;4.108;2023-09-12T08:18:04;11.23;;;5.68;;
19434;SDS011;9853;50.848;4.108;2023-09-12T08:20:06;14.98;;;5.30;;
19434;SDS011;9853;50.848;4.108;2023-09-12T08:22:27;12.77;;;5.32;;
19434;SDS011;9853;50.848;4.108;2023-09-12T08:24:27;15.60;;;6.47;;
19434;SDS011;9853;50.848;4.108;2023-09-12T08:26:28;9.90;;;5.45;;
19434;SDS011;9853;50.848;4.108;2023-09-12T08:28:29;15.65;;;7.25;;
19434;SDS011;9853;50.848;4.108;2023-09-12T08:30:30;10.32;;;5.63;;
19434;SDS011;9853;50.848;4.108;2023-09-12T08:32:31;10.48;;;5.78;;
19434;SDS011;9853;50.848;4.108;2023-09-12T08:34:31;12.48;;;6.63;;
19434;SDS011;9853;50.848;4.108;2023-09-12T08:36:32;13.55;;;5.65;;
19434;SDS011;9853;50.848;4.108;2023-09-12T08:38:35;9.05;;;5.07;;
19434;SDS011;9853;50.848;4.108;2023-09-12T08:40:35;11.88;;;4.45;;
19434;SDS011;9853;50.848;4.108;2023-09-12T08:42:38;16.35;;;7.40;;
19434;SDS011;9853;50.848;4.108;2023-09-12T08:44:43;14.05;;;5.10;;
19434;SDS011;9853;50.848;4.108;2023-09-12T08:46:44;11.30;;;5.53;;
19434;SDS011;9853;50.848;4.108;2023-09-12T08:48:45;11.02;;;5.57;;
19434;SDS011;9853;50.848;4.108;2023-09-12T08:50:47;11.48;;;6.00;;
19434;SDS011;9853;50.848;4.108;2023-09-12T08:52:49;12.60;;;6.10;;
19434;SDS011;9853;50.848;4.108;2023-09-12T08:54:50;10.48;;;6.00;;
19434;SDS011;9853;50.848;4.108;2023-09-12T08:56:51;10.23;;;5.22;;
19434;SDS011;9853;50.848;4.108;2023-09-12T08:59:13;13.80;;;6.00;;
19434;SDS011;9853;50.848;4.108;2023-09-12T09:01:14;9.57;;;5.60;;
19434;SDS011;9853;50.848;4.108;2023-09-12T09:03:18;11.20;;;5.95;;
19434;SDS011;9853;50.848;4.108;2023-09-12T09:05:20;12.27;;;6.28;;
19434;SDS011;9853;50.848;4.108;2023-09-12T09:07:24;9.43;;;4.95;;
19434;SDS011;9853;50.848;4.108;2023-09-12T09:09:26;10.10;;;4.95;;
19434;SDS011;9853;50.848;4.108;2023-09-12T09:11:30;12.57;;;5.25;;
19434;SDS011;9853;50.848;4.108;2023-09-12T09:13:31;17.20;;;6.07;;
19434;SDS011;9853;50.848;4.108;2023-09-12T09:15:32;10.57;;;4.85;;
19434;SDS011;9853;50.848;4.108;2023-09-12T09:17:33;12.45;;;5.25;;
19434;SDS011;9853;50.848;4.108;2023-09-12T09:19:41;11.50;;;5.40;;
19434;SDS011;9853;50.848;4.108;2023-09-12T09:21:42;14.32;;;5.13;;
19434;SDS011;9853;50.848;4.108;2023-09-12T09:23:46;12.10;;;5.22;;
19434;SDS011;9853;50.848;4.108;2023-09-12T09:25:51;11.55;;;5.47;;
19434;SDS011;9853;50.848;4.108;2023-09-12T09:27:53;8.38;;;4.93;;
19434;SDS011;9853;50.848;4.108;2023-09-12T09:29:54;8.80;;;4.25;;
19434;SDS011;9853;50.848;4.108;2023-09-12T09:31:55;9.55;;;5.22;;
19434;SDS011;9853;50.848;4.108;2023-09-12T09:33:56;9.68;;;4.43;;
19434;SDS011;9853;50.848;4.108;2023-09-12T09:36:05;11.55;;;5.22;;
19434;SDS011;9853;50.848;4.108;2023-09-12T09:38:07;10.32;;;4.75;;
19434;SDS011;9853;50.848;4.108;2023-09-12T09:40:10;8.77;;;4.18;;
19434;SDS011;9853;50.848;4.108;2023-09-12T09:42:11;7.35;;;3.85;;
19434;SDS011;9853;50.848;4.108;2023-09-12T09:44:12;7.70;;;3.55;;
19434;SDS011;9853;50.848;4.108;2023-09-12T09:46:17;6.35;;;3.30;;
19434;SDS011;9853;50.848;4.108;2023-09-12T09:48:22;6.72;;;4.10;;
19434;SDS011;9853;50.848;4.108;2023-09-12T09:50:24;6.05;;;3.95;;
19434;SDS011;9853;50.848;4.108;2023-09-12T09:52:26;9.70;;;3.95;;
19434;SDS011;9853;50.848;4.108;2023-09-12T09:54:29;5.57;;;3.22;;
19434;SDS011;9853;50.848;4.108;2023-09-12T09:56:30;7.85;;;3.20;;
19434;SDS011;9853;50.848;4.108;2023-09-12T09:58:32;5.90;;;3.28;;
19434;SDS011;9853;50.848;4.108;2023-09-12T10:00:33;6.68;;;3.95;;
19434;SDS011;9853;50.848;4.108;2023-09-12T10:02:36;8.02;;;3.72;;
19434;SDS011;9853;50.848;4.108;2023-09-12T10:04:39;9.23;;;3.75;;
19434;SDS011;9853;50.848;4.108;2023-09-12T10:06:42;13.07;;;4.88;;
19434;SDS011;9853;50.848;4.108;2023-09-12T10:08:45;12.65;;;4.93;;
19434;SDS011;9853;50.848;4.108;2023-09-12T10:10:50;8.90;;;4.60;;
19434;SDS011;9853;50.848;4.108;2023-09-12T10:12:54;9.40;;;5.68;;
19434;SDS011;9853;50.848;4.108;2023-09-12T10:15:03;9.27;;;4.45;;
19434;SDS011;9853;50.848;4.108;2023-09-12T10:17:06;9.82;;;4.93;;
19434;SDS011;9853;50.848;4.108;2023-09-12T10:21:21;6.35;;;2.97;;
19434;SDS011;9853;50.848;4.108;2023-09-12T10:23:28;11.50;;;3.42;;
19434;SDS011;9853;50.848;4.108;2023-09-12T10:25:37;6.93;;;3.50;;
19434;SDS011;9853;50.848;4.108;2023-09-12T10:27:38;7.07;;;3.45;;
19434;SDS011;9853;50.848;4.108;2023-09-12T10:29:39;8.65;;;3.08;;
19434;SDS011;9853;50.848;4.108;2023-09-12T10:31:40;4.50;;;2.35;;
19434;SDS011;9853;50.848;4.108;2023-09-12T10:33:41;4.00;;;1.40;;
19434;SDS011;9853;50.848;4.108;2023-09-12T10:35:44;2.92;;;1.45;;
19434;SDS011;9853;50.848;4.108;2023-09-12T10:37:46;3.38;;;1.77;;
19434;SDS011;9853;50.848;4.108;2023-09-12T10:39:52;5.68;;;1.80;;
19434;SDS011;9853;50.848;4.108;2023-09-12T10:41:54;4.15;;;1.70;;
19434;SDS011;9853;50.848;4.108;2023-09-12T10:43:55;2.58;;;1.08;;
19434;SDS011;9853;50.848;4.108;2023-09-12T10:46:00;3.13;;;1.50;;
19434;SDS011;9853;50.848;4.108;2023-09-12T10:48:03;6.32;;;1.55;;
19434;SDS011;9853;50.848;4.108;2023-09-12T10:50:05;2.22;;;1.17;;
19434;SDS011;9853;50.848;4.108;2023-09-12T10:52:07;3.25;;;1.13;;
19434;SDS011;9853;50.848;4.108;2023-09-12T10:54:08;4.07;;;1.60;;
19434;SDS011;9853;50.848;4.108;2023-09-12T10:58:15;3.50;;;2.03;;
19434;SDS011;9853;50.848;4.108;2023-09-12T11:00:16;5.70;;;2.42;;
19434;SDS011;9853;50.848;4.108;2023-09-12T11:02:36;5.00;;;2.42;;
19434;SDS011;9853;50.848;4.108;2023-09-12T11:04:38;8.68;;;2.50;;
19434;SDS011;9853;50.848;4.108;2023-09-12T11:06:39;3.83;;;2.03;;
19434;SDS011;9853;50.848;4.108;2023-09-12T11:08:40;6.63;;;2.53;;
19434;SDS011;9853;50.848;4.108;2023-09-12T11:10:41;6.93;;;2.28;;
19434;SDS011;9853;50.848;4.108;2023-09-12T11:12:42;5.03;;;2.25;;
19434;SDS011;9853;50.848;4.108;2023-09-12T11:21:23;4.72;;;2.65;;
19434;SDS011;9853;50.848;4.108;2023-09-12T11:23:32;5.15;;;2.45;;
19434;SDS011;9853;50.848;4.108;2023-09-12T11:25:35;3.72;;;2.35;;
19434;SDS011;9853;50.848;4.108;2023-09-12T11:29:52;4.95;;;2.50;;
19434;SDS011;9853;50.848;4.108;2023-09-12T11:31:56;4.93;;;2.35;;
19434;SDS011;9853;50.848;4.108;2023-09-12T11:34:00;6.82;;;2.63;;
19434;SDS011;9853;50.848;4.108;2023-09-12T11:36:02;3.70;;;2.00;;
19434;SDS011;9853;50.848;4.108;2023-09-12T11:38:09;6.68;;;2.72;;
19434;SDS011;9853;50.848;4.108;2023-09-12T11:42:11;5.60;;;2.80;;
19434;SDS011;9853;50.848;4.108;2023-09-12T11:44:13;7.20;;;3.30;;
19434;SDS011;9853;50.848;4.108;2023-09-12T11:46:14;4.43;;;2.70;;
19434;SDS011;9853;50.848;4.108;2023-09-12T11:48:15;6.00;;;3.03;;
19434;SDS011;9853;50.848;4.108;2023-09-12T11:52:30;6.95;;;3.40;;
19434;SDS011;9853;50.848;4.108;2023-09-12T11:54:31;11.35;;;3.13;;
19434;SDS011;9853;50.848;4.108;2023-09-12T11:56:34;5.50;;;2.60;;
19434;SDS011;9853;50.848;4.108;2023-09-12T11:58:35;5.75;;;2.83;;
19434;SDS011;9853;50.848;4.108;2023-09-12T12:00:36;7.30;;;2.83;;
19434;SDS011;9853;50.848;4.108;2023-09-12T12:02:37;5.57;;;2.58;;
19434;SDS011;9853;50.848;4.108;2023-09-12T12:04:38;6.18;;;2.95;;
19434;SDS011;9853;50.848;4.108;2023-09-12T12:06:39;9.50;;;3.60;;
19434;SDS011;9853;50.848;4.108;2023-09-12T12:08:41;4.53;;;2.70;;
19434;SDS011;9853;50.848;4.108;2023-09-12T12:10:42;6.03;;;3.70;;
19434;SDS011;9853;50.848;4.108;2023-09-12T12:12:44;7.35;;;3.13;;
19434;SDS011;9853;50.848;4.108;2023-09-12T12:14:46;6.18;;;2.88;;
19434;SDS011;9853;50.848;4.108;2023-09-12T12:16:47;4.65;;;2.75;;
19434;SDS011;9853;50.848;4.108;2023-09-12T12:18:47;6.95;;;2.92;;
19434;SDS011;9853;50.848;4.108;2023-09-12T12:20:48;6.95;;;3.17;;
19434;SDS011;9853;50.848;4.108;2023-09-12T12:22:49;6.05;;;3.33;;
19434;SDS011;9853;50.848;4.108;2023-09-12T12:24:53;6.50;;;3.15;;
19434;SDS011;9853;50.848;4.108;2023-09-12T12:26:59;5.68;;;3.55;;
19434;SDS011;9853;50.848;4.108;2023-09-12T12:29:00;4.82;;;3.05;;
19434;SDS011;9853;50.848;4.108;2023-09-12T12:31:02;7.75;;;3.40;;
19434;SDS011;9853;50.848;4.108;2023-09-12T12:33:06;9.38;;;3.47;;
19434;SDS011;9853;50.848;4.108;2023-09-12T12:35:16;5.57;;;3.05;;
19434;SDS011;9853;50.848;4.108;2023-09-12T12:37:18;6.03;;;3.22;;
19434;SDS011;9853;50.848;4.108;2023-09-12T12:39:20;8.63;;;3.45;;
19434;SDS011;9853;50.848;4.108;2023-09-12T12:41:25;11.52;;;3.30;;